sensor_id;sensor_type;location;lat;lon;timestamp;temperature;humidity
20833;DHT22;56075;51.264;7.150;2022-10-01T00:02:18;13.60;99.90
20833;DHT22;56075;51.264;7.150;2022-10-01T00:04:49;12.10;99.90
20833;DHT22;56075;51.264;7.150;2022-10-01T00:07:21;12.30;99.90
20833;DHT22;56075;51.264;7.150;2022-10-01T00:09:52;12.20;99.90
20833;DHT22;56075;51.264;7.150;2022-10-01T00:12:24;12.30;99.90
20833;DHT22;56075;51.264;7.150;2022-10-01T00:14:55;12.30;99.90
20833;DHT22;56075;51.264;7.150;2022-10-01T00:17:26;12.10;99.90
20833;DHT22;56075;51.264;7.150;2022-10-01T00:19:57;12.30;99.90
20833;DHT22;56075;51.264;7.150;2022-10-01T00:22:32;12.30;99.90
20833;DHT22;56075;51.264;7.150;2022-10-01T00:25:05;12.30;99.90
20833;DHT22;56075;51.264;7.150;2022-10-01T00:27:36;12.20;99.90
20833;DHT22;56075;51.264;7.150;2022-10-01T00:30:08;12.30;99.90
20833;DHT22;56075;51.264;7.150;2022-10-01T00:32:39;12.30;99.90
20833;DHT22;56075;51.264;7.150;2022-10-01T00:35:11;13.30;99.90
20833;DHT22;56075;51.264;7.150;2022-10-01T00:37:46;12.10;99.90
20833;DHT22;56075;51.264;7.150;2022-10-01T00:40:19;12.10;99.90
20833;DHT22;56075;51.264;7.150;2022-10-01T00:42:51;11.90;99.90
20833;DHT22;56075;51.264;7.150;2022-10-01T00:45:22;12.00;99.90
20833;DHT22;56075;51.264;7.150;2022-10-01T00:47:55;11.80;99.90
20833;DHT22;56075;51.264;7.150;2022-10-01T00:50:32;11.60;99.90
20833;DHT22;56075;51.264;7.150;2022-10-01T00:53:06;11.50;99.90
20833;DHT22;56075;51.264;7.150;2022-10-01T00:55:51;11.10;99.90
20833;DHT22;56075;51.264;7.150;2022-10-01T00:58:26;11.00;99.90
20833;DHT22;56075;51.264;7.150;2022-10-01T01:00:57;10.90;99.90
20833;DHT22;56075;51.264;7.150;2022-10-01T01:03:28;10.70;99.90
20833;DHT22;56075;51.264;7.150;2022-10-01T01:05:59;10.50;99.90
20833;DHT22;56075;51.264;7.150;2022-10-01T01:11:20;10.60;99.90
20833;DHT22;56075;51.264;7.150;2022-10-01T01:17:00;10.40;99.90
20833;DHT22;56075;51.264;7.150;2022-10-01T01:20:21;10.40;99.90
20833;DHT22;56075;51.264;7.150;2022-10-01T01:22:52;10.20;99.90
20833;DHT22;56075;51.264;7.150;2022-10-01T01:25:31;10.40;99.90
20833;DHT22;56075;51.264;7.150;2022-10-01T01:30:52;10.20;99.90
20833;DHT22;56075;51.264;7.150;2022-10-01T01:33:26;10.20;99.90
20833;DHT22;56075;51.264;7.150;2022-10-01T01:36:06;10.20;99.90
20833;DHT22;56075;51.264;7.150;2022-10-01T01:38:43;10.10;99.90
20833;DHT22;56075;51.264;7.150;2022-10-01T01:43:51;10.10;99.90
20833;DHT22;56075;51.264;7.150;2022-10-01T01:51:55;10.20;99.90
20833;DHT22;56075;51.264;7.150;2022-10-01T01:54:28;10.10;99.90
20833;DHT22;56075;51.264;7.150;2022-10-01T01:59:34;10.20;99.90
20833;DHT22;56075;51.264;7.150;2022-10-01T02:02:08;10.10;99.90
20833;DHT22;56075;51.264;7.150;2022-10-01T02:13:24;10.20;99.90
20833;DHT22;56075;51.264;7.150;2022-10-01T02:24:44;10.20;99.90
20833;DHT22;56075;51.264;7.150;2022-10-01T02:27:28;10.20;99.90
20833;DHT22;56075;51.264;7.150;2022-10-01T02:32:35;10.10;99.90
20833;DHT22;56075;51.264;7.150;2022-10-01T02:40:17;10.00;99.90
20833;DHT22;56075;51.264;7.150;2022-10-01T02:45:24;10.30;99.90
20833;DHT22;56075;51.264;7.150;2022-10-01T02:53:16;10.20;99.90
20833;DHT22;56075;51.264;7.150;2022-10-01T02:55:51;10.10;99.90
20833;DHT22;56075;51.264;7.150;2022-10-01T03:03:26;9.90;99.90
20833;DHT22;56075;51.264;7.150;2022-10-01T03:05:58;10.10;99.90
20833;DHT22;56075;51.264;7.150;2022-10-01T03:08:29;10.00;99.90
20833;DHT22;56075;51.264;7.150;2022-10-01T03:11:01;10.10;99.90
20833;DHT22;56075;51.264;7.150;2022-10-01T03:13:32;10.10;99.90
20833;DHT22;56075;51.264;7.150;2022-10-01T03:16:04;10.20;99.90
20833;DHT22;56075;51.264;7.150;2022-10-01T03:18:35;10.10;99.90
20833;DHT22;56075;51.264;7.150;2022-10-01T03:21:06;10.40;99.90
20833;DHT22;56075;51.264;7.150;2022-10-01T03:23:37;10.00;99.90
20833;DHT22;56075;51.264;7.150;2022-10-01T03:28:39;10.20;99.90
20833;DHT22;56075;51.264;7.150;2022-10-01T03:31:11;9.90;99.90
20833;DHT22;56075;51.264;7.150;2022-10-01T03:33:42;10.10;99.90
20833;DHT22;56075;51.264;7.150;2022-10-01T03:36:16;10.10;99.90
20833;DHT22;56075;51.264;7.150;2022-10-01T03:38:47;10.10;99.90
20833;DHT22;56075;51.264;7.150;2022-10-01T03:41:18;10.30;99.90
20833;DHT22;56075;51.264;7.150;2022-10-01T03:43:49;10.00;99.90
20833;DHT22;56075;51.264;7.150;2022-10-01T03:46:20;10.10;99.90
20833;DHT22;56075;51.264;7.150;2022-10-01T03:51:23;10.00;99.90
20833;DHT22;56075;51.264;7.150;2022-10-01T03:53:55;9.90;99.90
20833;DHT22;56075;51.264;7.150;2022-10-01T03:56:26;10.00;99.90
20833;DHT22;56075;51.264;7.150;2022-10-01T04:01:28;10.10;99.90
20833;DHT22;56075;51.264;7.150;2022-10-01T04:04:00;10.30;99.90
20833;DHT22;56075;51.264;7.150;2022-10-01T04:06:32;10.10;99.90
20833;DHT22;56075;51.264;7.150;2022-10-01T04:09:03;10.10;99.90
20833;DHT22;56075;51.264;7.150;2022-10-01T04:14:06;10.20;99.90
20833;DHT22;56075;51.264;7.150;2022-10-01T04:16:38;10.10;99.90
20833;DHT22;56075;51.264;7.150;2022-10-01T04:24:12;10.10;99.90
20833;DHT22;56075;51.264;7.150;2022-10-01T04:34:17;10.10;99.90
20833;DHT22;56075;51.264;7.150;2022-10-01T04:36:49;10.20;99.90
20833;DHT22;56075;51.264;7.150;2022-10-01T04:39:20;10.20;99.90
20833;DHT22;56075;51.264;7.150;2022-10-01T04:41:51;10.10;99.90
20833;DHT22;56075;51.264;7.150;2022-10-01T04:44:22;10.10;99.90
20833;DHT22;56075;51.264;7.150;2022-10-01T04:46:53;10.20;99.90
20833;DHT22;56075;51.264;7.150;2022-10-01T04:49:24;10.20;99.90
20833;DHT22;56075;51.264;7.150;2022-10-01T04:59:30;10.30;99.90
20833;DHT22;56075;51.264;7.150;2022-10-01T05:02:01;10.20;99.90
20833;DHT22;56075;51.264;7.150;2022-10-01T05:07:04;10.40;99.90
20833;DHT22;56075;51.264;7.150;2022-10-01T05:19:42;10.40;99.90
20833;DHT22;56075;51.264;7.150;2022-10-01T05:22:13;10.40;99.90
20833;DHT22;56075;51.264;7.150;2022-10-01T05:24:45;10.60;99.90
20833;DHT22;56075;51.264;7.150;2022-10-01T05:27:17;10.50;99.90
20833;DHT22;56075;51.264;7.150;2022-10-01T05:29:49;10.40;99.90
20833;DHT22;56075;51.264;7.150;2022-10-01T05:32:20;10.30;99.90
20833;DHT22;56075;51.264;7.150;2022-10-01T05:34:51;10.40;99.90
20833;DHT22;56075;51.264;7.150;2022-10-01T05:37:22;10.40;99.90
20833;DHT22;56075;51.264;7.150;2022-10-01T05:39:54;10.50;99.90
20833;DHT22;56075;51.264;7.150;2022-10-01T05:42:25;10.20;99.90
20833;DHT22;56075;51.264;7.150;2022-10-01T05:44:56;10.40;99.90
20833;DHT22;56075;51.264;7.150;2022-10-01T05:47:27;10.40;99.90
20833;DHT22;56075;51.264;7.150;2022-10-01T05:49:58;10.40;99.90
20833;DHT22;56075;51.264;7.150;2022-10-01T05:52:29;10.50;99.90
20833;DHT22;56075;51.264;7.150;2022-10-01T05:55:00;10.50;99.90
20833;DHT22;56075;51.264;7.150;2022-10-01T05:57:31;10.70;99.90
20833;DHT22;56075;51.264;7.150;2022-10-01T06:00:03;10.50;99.90
20833;DHT22;56075;51.264;7.150;2022-10-01T06:02:42;10.40;99.90
20833;DHT22;56075;51.264;7.150;2022-10-01T06:05:14;10.60;99.90
20833;DHT22;56075;51.264;7.150;2022-10-01T06:07:45;10.60;99.90
20833;DHT22;56075;51.264;7.150;2022-10-01T06:10:17;10.50;99.90
20833;DHT22;56075;51.264;7.150;2022-10-01T06:12:48;10.70;99.90
20833;DHT22;56075;51.264;7.150;2022-10-01T06:15:19;10.50;99.90
20833;DHT22;56075;51.264;7.150;2022-10-01T06:17:50;10.50;99.90
20833;DHT22;56075;51.264;7.150;2022-10-01T06:22:55;10.80;99.90
20833;DHT22;56075;51.264;7.150;2022-10-01T06:25:27;10.80;99.90
20833;DHT22;56075;51.264;7.150;2022-10-01T06:28:02;10.50;99.90
20833;DHT22;56075;51.264;7.150;2022-10-01T06:30:37;10.50;99.90
20833;DHT22;56075;51.264;7.150;2022-10-01T06:33:10;10.60;99.90
20833;DHT22;56075;51.264;7.150;2022-10-01T06:35:46;10.70;99.90
20833;DHT22;56075;51.264;7.150;2022-10-01T06:38:19;10.70;99.90
20833;DHT22;56075;51.264;7.150;2022-10-01T06:43:24;10.50;99.90
20833;DHT22;56075;51.264;7.150;2022-10-01T06:45:59;10.40;99.90
20833;DHT22;56075;51.264;7.150;2022-10-01T06:48:30;10.60;99.90
20833;DHT22;56075;51.264;7.150;2022-10-01T06:51:02;10.60;99.90
20833;DHT22;56075;51.264;7.150;2022-10-01T06:53:34;10.50;99.90
20833;DHT22;56075;51.264;7.150;2022-10-01T06:56:06;10.60;99.90
20833;DHT22;56075;51.264;7.150;2022-10-01T06:58:37;10.40;99.90
20833;DHT22;56075;51.264;7.150;2022-10-01T07:01:08;10.60;99.90
20833;DHT22;56075;51.264;7.150;2022-10-01T07:03:40;10.70;99.90
20833;DHT22;56075;51.264;7.150;2022-10-01T07:06:12;10.50;99.90
20833;DHT22;56075;51.264;7.150;2022-10-01T07:08:43;10.60;99.90
20833;DHT22;56075;51.264;7.150;2022-10-01T07:11:14;10.70;99.90
20833;DHT22;56075;51.264;7.150;2022-10-01T07:13:46;10.60;99.90
20833;DHT22;56075;51.264;7.150;2022-10-01T07:16:17;10.60;99.90
20833;DHT22;56075;51.264;7.150;2022-10-01T07:18:48;10.80;99.90
20833;DHT22;56075;51.264;7.150;2022-10-01T07:21:19;10.80;99.90
20833;DHT22;56075;51.264;7.150;2022-10-01T07:23:50;10.60;99.90
20833;DHT22;56075;51.264;7.150;2022-10-01T07:26:22;10.80;99.90
20833;DHT22;56075;51.264;7.150;2022-10-01T07:28:53;10.90;99.90
20833;DHT22;56075;51.264;7.150;2022-10-01T07:31:25;10.90;99.90
20833;DHT22;56075;51.264;7.150;2022-10-01T07:33:56;10.80;99.90
20833;DHT22;56075;51.264;7.150;2022-10-01T07:36:33;10.80;99.90
20833;DHT22;56075;51.264;7.150;2022-10-01T07:39:04;11.00;99.90
20833;DHT22;56075;51.264;7.150;2022-10-01T07:41:36;10.90;99.90
20833;DHT22;56075;51.264;7.150;2022-10-01T07:44:08;10.90;99.90
20833;DHT22;56075;51.264;7.150;2022-10-01T07:46:39;11.10;99.90
20833;DHT22;56075;51.264;7.150;2022-10-01T07:49:11;11.00;99.90
20833;DHT22;56075;51.264;7.150;2022-10-01T07:51:42;11.10;99.90
20833;DHT22;56075;51.264;7.150;2022-10-01T07:54:13;11.10;99.90
20833;DHT22;56075;51.264;7.150;2022-10-01T07:56:45;11.00;99.90
20833;DHT22;56075;51.264;7.150;2022-10-01T07:59:18;11.20;99.90
20833;DHT22;56075;51.264;7.150;2022-10-01T08:01:50;11.20;99.90
20833;DHT22;56075;51.264;7.150;2022-10-01T08:04:24;11.20;99.90
20833;DHT22;56075;51.264;7.150;2022-10-01T08:07:13;10.90;99.90
20833;DHT22;56075;51.264;7.150;2022-10-01T08:12:16;11.20;99.90
20833;DHT22;56075;51.264;7.150;2022-10-01T08:14:49;11.10;99.90
20833;DHT22;56075;51.264;7.150;2022-10-01T08:17:26;11.30;99.90
20833;DHT22;56075;51.264;7.150;2022-10-01T08:19:57;12.30;99.90
20833;DHT22;56075;51.264;7.150;2022-10-01T08:22:28;11.40;99.90
20833;DHT22;56075;51.264;7.150;2022-10-01T08:24:59;11.40;99.90
20833;DHT22;56075;51.264;7.150;2022-10-01T08:27:30;11.70;99.90
20833;DHT22;56075;51.264;7.150;2022-10-01T08:30:02;11.50;99.90
20833;DHT22;56075;51.264;7.150;2022-10-01T08:32:33;11.50;99.90
20833;DHT22;56075;51.264;7.150;2022-10-01T08:35:05;11.80;99.90
20833;DHT22;56075;51.264;7.150;2022-10-01T08:37:36;11.60;99.90
20833;DHT22;56075;51.264;7.150;2022-10-01T08:45:28;12.50;99.90
20833;DHT22;56075;51.264;7.150;2022-10-01T08:53:43;12.90;99.90
20833;DHT22;56075;51.264;7.150;2022-10-01T09:06:32;13.50;99.90
20833;DHT22;56075;51.264;7.150;2022-10-01T09:12:20;12.80;99.90
20833;DHT22;56075;51.264;7.150;2022-10-01T09:15:02;12.50;99.90
20833;DHT22;56075;51.264;7.150;2022-10-01T09:17:52;12.50;99.90
20833;DHT22;56075;51.264;7.150;2022-10-01T09:20:35;12.30;99.90
20833;DHT22;56075;51.264;7.150;2022-10-01T09:23:18;12.30;99.90
20833;DHT22;56075;51.264;7.150;2022-10-01T09:25:54;12.40;99.90
20833;DHT22;56075;51.264;7.150;2022-10-01T09:33:42;12.50;99.90
20833;DHT22;56075;51.264;7.150;2022-10-01T09:36:29;12.40;99.90
20833;DHT22;56075;51.264;7.150;2022-10-01T09:39:17;12.40;99.90
20833;DHT22;56075;51.264;7.150;2022-10-01T09:41:50;12.40;99.90
20833;DHT22;56075;51.264;7.150;2022-10-01T09:44:26;12.50;99.90
20833;DHT22;56075;51.264;7.150;2022-10-01T09:46:59;12.50;99.90
20833;DHT22;56075;51.264;7.150;2022-10-01T09:49:38;12.50;99.90
20833;DHT22;56075;51.264;7.150;2022-10-01T09:52:23;12.90;99.90
20833;DHT22;56075;51.264;7.150;2022-10-01T09:55:27;12.50;99.90
20833;DHT22;56075;51.264;7.150;2022-10-01T09:58:12;12.60;99.90
20833;DHT22;56075;51.264;7.150;2022-10-01T10:00:44;12.60;99.90
20833;DHT22;56075;51.264;7.150;2022-10-01T10:03:25;14.00;99.90
20833;DHT22;56075;51.264;7.150;2022-10-01T10:06:00;12.70;99.90
20833;DHT22;56075;51.264;7.150;2022-10-01T10:08:38;12.70;99.90
20833;DHT22;56075;51.264;7.150;2022-10-01T10:11:18;12.70;99.90
20833;DHT22;56075;51.264;7.150;2022-10-01T10:13:53;13.20;99.90
20833;DHT22;56075;51.264;7.150;2022-10-01T10:16:32;12.80;99.90
20833;DHT22;56075;51.264;7.150;2022-10-01T10:19:06;12.80;99.90
20833;DHT22;56075;51.264;7.150;2022-10-01T10:21:56;13.10;99.90
20833;DHT22;56075;51.264;7.150;2022-10-01T10:24:39;13.00;99.90
20833;DHT22;56075;51.264;7.150;2022-10-01T10:27:22;13.10;99.90
20833;DHT22;56075;51.264;7.150;2022-10-01T10:30:16;13.10;99.90
20833;DHT22;56075;51.264;7.150;2022-10-01T10:32:47;13.60;99.90
20833;DHT22;56075;51.264;7.150;2022-10-01T10:35:24;13.20;99.90
20833;DHT22;56075;51.264;7.150;2022-10-01T10:37:56;15.00;99.90
20833;DHT22;56075;51.264;7.150;2022-10-01T10:40:38;14.40;99.90
20833;DHT22;56075;51.264;7.150;2022-10-01T10:43:21;13.40;99.90
20833;DHT22;56075;51.264;7.150;2022-10-01T10:45:54;15.10;99.90
20833;DHT22;56075;51.264;7.150;2022-10-01T10:48:34;13.40;99.90
20833;DHT22;56075;51.264;7.150;2022-10-01T10:51:06;13.60;99.90
20833;DHT22;56075;51.264;7.150;2022-10-01T10:53:43;11.60;99.90
20833;DHT22;56075;51.264;7.150;2022-10-01T10:56:23;13.60;99.90
20833;DHT22;56075;51.264;7.150;2022-10-01T10:59:05;13.70;99.90
20833;DHT22;56075;51.264;7.150;2022-10-01T11:01:42;13.80;99.90
20833;DHT22;56075;51.264;7.150;2022-10-01T11:04:26;13.70;99.90
20833;DHT22;56075;51.264;7.150;2022-10-01T11:06:59;13.90;99.90
20833;DHT22;56075;51.264;7.150;2022-10-01T11:16:11;13.60;99.90
20833;DHT22;56075;51.264;7.150;2022-10-01T11:22:08;13.70;99.90
20833;DHT22;56075;51.264;7.150;2022-10-01T11:25:07;13.60;99.90
20833;DHT22;56075;51.264;7.150;2022-10-01T11:39:10;14.20;99.90
20833;DHT22;56075;51.264;7.150;2022-10-01T11:47:24;14.00;99.90
20833;DHT22;56075;51.264;7.150;2022-10-01T11:50:19;14.30;99.90
20833;DHT22;56075;51.264;7.150;2022-10-01T11:55:55;14.10;99.90
20833;DHT22;56075;51.264;7.150;2022-10-01T11:59:05;13.90;99.90
20833;DHT22;56075;51.264;7.150;2022-10-01T12:02:02;13.90;99.90
20833;DHT22;56075;51.264;7.150;2022-10-01T12:04:39;14.10;99.90
20833;DHT22;56075;51.264;7.150;2022-10-01T12:07:26;14.30;99.90
20833;DHT22;56075;51.264;7.150;2022-10-01T12:10:34;14.30;99.90
20833;DHT22;56075;51.264;7.150;2022-10-01T12:13:24;14.10;99.90
20833;DHT22;56075;51.264;7.150;2022-10-01T12:19:11;14.30;99.90
20833;DHT22;56075;51.264;7.150;2022-10-01T12:21:56;14.20;99.90
20833;DHT22;56075;51.264;7.150;2022-10-01T12:24:33;14.20;99.90
20833;DHT22;56075;51.264;7.150;2022-10-01T12:30:23;14.20;99.90
20833;DHT22;56075;51.264;7.150;2022-10-01T12:36:09;14.20;99.90
20833;DHT22;56075;51.264;7.150;2022-10-01T12:39:15;14.00;99.90
20833;DHT22;56075;51.264;7.150;2022-10-01T12:53:38;13.60;99.90
20833;DHT22;56075;51.264;7.150;2022-10-01T12:56:22;13.30;99.90
20833;DHT22;56075;51.264;7.150;2022-10-01T13:13:31;13.10;99.90
20833;DHT22;56075;51.264;7.150;2022-10-01T13:19:12;13.20;99.90
20833;DHT22;56075;51.264;7.150;2022-10-01T13:22:12;13.40;99.90
20833;DHT22;56075;51.264;7.150;2022-10-01T13:24:49;13.30;99.90
20833;DHT22;56075;51.264;7.150;2022-10-01T13:27:50;13.20;99.90
20833;DHT22;56075;51.264;7.150;2022-10-01T13:30:26;13.30;99.90
20833;DHT22;56075;51.264;7.150;2022-10-01T13:33:02;13.30;99.90
20833;DHT22;56075;51.264;7.150;2022-10-01T13:35:38;13.40;99.90
20833;DHT22;56075;51.264;7.150;2022-10-01T13:38:13;13.50;99.90
20833;DHT22;56075;51.264;7.150;2022-10-01T13:40:56;13.70;99.90
20833;DHT22;56075;51.264;7.150;2022-10-01T13:43:29;13.50;99.90
20833;DHT22;56075;51.264;7.150;2022-10-01T13:46:08;13.60;99.90
20833;DHT22;56075;51.264;7.150;2022-10-01T13:48:46;13.90;99.90
20833;DHT22;56075;51.264;7.150;2022-10-01T13:51:18;13.90;99.90
20833;DHT22;56075;51.264;7.150;2022-10-01T13:53:58;14.30;99.90
20833;DHT22;56075;51.264;7.150;2022-10-01T13:56:33;14.60;99.90
20833;DHT22;56075;51.264;7.150;2022-10-01T13:59:30;14.70;99.90
20833;DHT22;56075;51.264;7.150;2022-10-01T14:02:27;14.60;99.90
20833;DHT22;56075;51.264;7.150;2022-10-01T14:08:09;14.60;99.90
20833;DHT22;56075;51.264;7.150;2022-10-01T14:10:50;14.60;99.90
20833;DHT22;56075;51.264;7.150;2022-10-01T14:13:45;14.40;99.90
20833;DHT22;56075;51.264;7.150;2022-10-01T14:16:44;14.00;99.90
20833;DHT22;56075;51.264;7.150;2022-10-01T14:19:18;14.40;99.90
20833;DHT22;56075;51.264;7.150;2022-10-01T14:39:22;13.90;99.90
20833;DHT22;56075;51.264;7.150;2022-10-01T14:41:55;13.90;99.90
20833;DHT22;56075;51.264;7.150;2022-10-01T14:44:29;13.90;99.90
20833;DHT22;56075;51.264;7.150;2022-10-01T14:49:49;14.00;99.90
20833;DHT22;56075;51.264;7.150;2022-10-01T14:52:28;13.90;99.90
20833;DHT22;56075;51.264;7.150;2022-10-01T14:55:05;14.20;99.90
20833;DHT22;56075;51.264;7.150;2022-10-01T14:57:49;14.10;99.90
20833;DHT22;56075;51.264;7.150;2022-10-01T15:00:26;13.90;99.90
20833;DHT22;56075;51.264;7.150;2022-10-01T15:03:02;14.10;99.90
20833;DHT22;56075;51.264;7.150;2022-10-01T15:05:38;14.10;99.90
20833;DHT22;56075;51.264;7.150;2022-10-01T15:08:14;14.30;99.90
20833;DHT22;56075;51.264;7.150;2022-10-01T15:11:24;14.60;99.90
20833;DHT22;56075;51.264;7.150;2022-10-01T15:14:02;14.70;99.90
20833;DHT22;56075;51.264;7.150;2022-10-01T15:16:34;14.80;99.90
20833;DHT22;56075;51.264;7.150;2022-10-01T15:19:07;15.70;99.90
20833;DHT22;56075;51.264;7.150;2022-10-01T15:21:51;15.10;99.90
20833;DHT22;56075;51.264;7.150;2022-10-01T15:24:35;16.10;99.90
20833;DHT22;56075;51.264;7.150;2022-10-01T15:27:11;15.30;99.90
20833;DHT22;56075;51.264;7.150;2022-10-01T15:29:43;15.20;99.90
20833;DHT22;56075;51.264;7.150;2022-10-01T15:32:17;15.30;99.90
20833;DHT22;56075;51.264;7.150;2022-10-01T15:34:53;15.40;99.90
20833;DHT22;56075;51.264;7.150;2022-10-01T15:37:31;15.30;99.90
20833;DHT22;56075;51.264;7.150;2022-10-01T15:40:05;15.20;99.90
20833;DHT22;56075;51.264;7.150;2022-10-01T15:42:42;15.30;99.90
20833;DHT22;56075;51.264;7.150;2022-10-01T15:45:34;15.00;99.90
20833;DHT22;56075;51.264;7.150;2022-10-01T15:48:27;15.00;99.90
20833;DHT22;56075;51.264;7.150;2022-10-01T15:51:16;15.00;99.90
20833;DHT22;56075;51.264;7.150;2022-10-01T15:53:49;14.80;99.90
20833;DHT22;56075;51.264;7.150;2022-10-01T15:56:22;14.80;99.90
20833;DHT22;56075;51.264;7.150;2022-10-01T15:58:56;14.90;99.90
20833;DHT22;56075;51.264;7.150;2022-10-01T16:01:37;15.80;99.90
20833;DHT22;56075;51.264;7.150;2022-10-01T16:04:11;14.70;99.90
20833;DHT22;56075;51.264;7.150;2022-10-01T16:06:45;15.10;99.90
20833;DHT22;56075;51.264;7.150;2022-10-01T16:09:24;15.30;99.90
20833;DHT22;56075;51.264;7.150;2022-10-01T16:12:17;14.90;99.90
20833;DHT22;56075;51.264;7.150;2022-10-01T16:14:59;16.10;99.90
20833;DHT22;56075;51.264;7.150;2022-10-01T16:17:35;14.90;99.90
20833;DHT22;56075;51.264;7.150;2022-10-01T16:22:44;14.80;99.90
20833;DHT22;56075;51.264;7.150;2022-10-01T16:28:01;16.00;99.90
20833;DHT22;56075;51.264;7.150;2022-10-01T16:30:34;14.70;99.90
20833;DHT22;56075;51.264;7.150;2022-10-01T16:33:08;14.50;99.90
20833;DHT22;56075;51.264;7.150;2022-10-01T16:35:40;14.60;99.90
20833;DHT22;56075;51.264;7.150;2022-10-01T16:38:14;14.70;99.90
20833;DHT22;56075;51.264;7.150;2022-10-01T16:40:45;14.60;99.90
20833;DHT22;56075;51.264;7.150;2022-10-01T16:43:20;14.60;99.90
20833;DHT22;56075;51.264;7.150;2022-10-01T16:45:55;15.20;99.90
20833;DHT22;56075;51.264;7.150;2022-10-01T16:48:27;15.80;99.90
20833;DHT22;56075;51.264;7.150;2022-10-01T16:50:58;14.30;99.90
20833;DHT22;56075;51.264;7.150;2022-10-01T16:53:29;15.10;99.90
20833;DHT22;56075;51.264;7.150;2022-10-01T16:56:01;14.30;99.90
20833;DHT22;56075;51.264;7.150;2022-10-01T16:58:32;14.40;99.90
20833;DHT22;56075;51.264;7.150;2022-10-01T17:01:13;14.30;99.90
20833;DHT22;56075;51.264;7.150;2022-10-01T17:03:44;15.10;99.90
20833;DHT22;56075;51.264;7.150;2022-10-01T17:06:15;15.80;99.90
20833;DHT22;56075;51.264;7.150;2022-10-01T17:08:46;14.10;99.90
20833;DHT22;56075;51.264;7.150;2022-10-01T17:11:17;14.00;99.90
20833;DHT22;56075;51.264;7.150;2022-10-01T17:13:49;13.80;99.90
20833;DHT22;56075;51.264;7.150;2022-10-01T17:16:21;13.60;99.90
20833;DHT22;56075;51.264;7.150;2022-10-01T17:18:53;14.70;99.90
20833;DHT22;56075;51.264;7.150;2022-10-01T17:21:24;13.80;99.90
20833;DHT22;56075;51.264;7.150;2022-10-01T17:23:55;13.60;99.90
20833;DHT22;56075;51.264;7.150;2022-10-01T17:26:26;13.80;99.90
20833;DHT22;56075;51.264;7.150;2022-10-01T17:28:57;13.50;99.90
20833;DHT22;56075;51.264;7.150;2022-10-01T17:31:28;13.50;99.90
20833;DHT22;56075;51.264;7.150;2022-10-01T17:34:00;13.50;99.90
20833;DHT22;56075;51.264;7.150;2022-10-01T17:36:32;13.40;99.90
20833;DHT22;56075;51.264;7.150;2022-10-01T17:39:04;14.50;99.90
20833;DHT22;56075;51.264;7.150;2022-10-01T17:41:36;13.50;99.90
20833;DHT22;56075;51.264;7.150;2022-10-01T17:44:07;13.60;99.90
20833;DHT22;56075;51.264;7.150;2022-10-01T17:46:38;13.50;99.90
20833;DHT22;56075;51.264;7.150;2022-10-01T17:49:09;13.50;99.90
20833;DHT22;56075;51.264;7.150;2022-10-01T17:51:40;13.60;99.90
20833;DHT22;56075;51.264;7.150;2022-10-01T17:54:11;13.30;99.90
20833;DHT22;56075;51.264;7.150;2022-10-01T17:56:42;13.30;99.90
20833;DHT22;56075;51.264;7.150;2022-10-01T17:59:14;13.50;99.90
20833;DHT22;56075;51.264;7.150;2022-10-01T18:01:45;15.10;99.90
20833;DHT22;56075;51.264;7.150;2022-10-01T18:04:16;13.40;99.90
20833;DHT22;56075;51.264;7.150;2022-10-01T18:06:48;13.20;99.90
20833;DHT22;56075;51.264;7.150;2022-10-01T18:09:19;13.20;99.90
20833;DHT22;56075;51.264;7.150;2022-10-01T18:11:50;13.10;99.90
20833;DHT22;56075;51.264;7.150;2022-10-01T18:14:21;13.20;99.90
20833;DHT22;56075;51.264;7.150;2022-10-01T18:16:53;13.30;99.90
20833;DHT22;56075;51.264;7.150;2022-10-01T18:19:24;13.10;99.90
20833;DHT22;56075;51.264;7.150;2022-10-01T18:21:57;13.90;99.90
20833;DHT22;56075;51.264;7.150;2022-10-01T18:24:29;14.40;99.90
20833;DHT22;56075;51.264;7.150;2022-10-01T18:27:00;14.00;99.90
20833;DHT22;56075;51.264;7.150;2022-10-01T18:29:32;12.80;99.90
20833;DHT22;56075;51.264;7.150;2022-10-01T18:34:40;13.10;99.90
20833;DHT22;56075;51.264;7.150;2022-10-01T18:40:18;12.90;99.90
20833;DHT22;56075;51.264;7.150;2022-10-01T18:43:12;12.90;99.90
20833;DHT22;56075;51.264;7.150;2022-10-01T19:00:18;12.70;99.90
20833;DHT22;56075;51.264;7.150;2022-10-01T19:09:27;13.60;99.90
20833;DHT22;56075;51.264;7.150;2022-10-01T19:28:38;12.40;99.90
20833;DHT22;56075;51.264;7.150;2022-10-01T19:31:21;12.90;99.90
20833;DHT22;56075;51.264;7.150;2022-10-01T19:34:16;12.40;99.90
20833;DHT22;56075;51.264;7.150;2022-10-01T19:37:18;13.60;99.90
20833;DHT22;56075;51.264;7.150;2022-10-01T19:39:56;12.30;99.90
20833;DHT22;56075;51.264;7.150;2022-10-01T19:42:32;12.50;99.90
20833;DHT22;56075;51.264;7.150;2022-10-01T19:45:23;12.30;99.90
20833;DHT22;56075;51.264;7.150;2022-10-01T19:48:05;12.30;99.90
20833;DHT22;56075;51.264;7.150;2022-10-01T19:50:43;12.20;99.90
20833;DHT22;56075;51.264;7.150;2022-10-01T19:53:34;12.40;99.90
20833;DHT22;56075;51.264;7.150;2022-10-01T19:56:14;12.10;99.90
20833;DHT22;56075;51.264;7.150;2022-10-01T19:58:46;12.20;99.90
20833;DHT22;56075;51.264;7.150;2022-10-01T20:01:19;13.90;99.90
20833;DHT22;56075;51.264;7.150;2022-10-01T20:04:01;12.10;99.90
20833;DHT22;56075;51.264;7.150;2022-10-01T20:06:36;12.20;99.90
20833;DHT22;56075;51.264;7.150;2022-10-01T20:20:38;12.10;99.90
20833;DHT22;56075;51.264;7.150;2022-10-01T20:26:04;12.00;99.90
20833;DHT22;56075;51.264;7.150;2022-10-01T20:29:00;12.00;99.90
20833;DHT22;56075;51.264;7.150;2022-10-01T20:31:57;11.90;99.90
20833;DHT22;56075;51.264;7.150;2022-10-01T20:38:11;11.90;99.90
20833;DHT22;56075;51.264;7.150;2022-10-01T20:43:16;11.80;99.90
20833;DHT22;56075;51.264;7.150;2022-10-01T20:45:50;11.70;99.90
20833;DHT22;56075;51.264;7.150;2022-10-01T20:48:34;11.80;99.90
20833;DHT22;56075;51.264;7.150;2022-10-01T20:51:37;11.70;99.90
20833;DHT22;56075;51.264;7.150;2022-10-01T20:54:18;11.60;99.90
20833;DHT22;56075;51.264;7.150;2022-10-01T20:59:36;11.60;99.90
20833;DHT22;56075;51.264;7.150;2022-10-01T21:02:51;12.70;99.90
20833;DHT22;56075;51.264;7.150;2022-10-01T21:05:33;11.70;99.90
20833;DHT22;56075;51.264;7.150;2022-10-01T21:10:52;11.50;99.90
20833;DHT22;56075;51.264;7.150;2022-10-01T21:13:35;13.10;99.90
20833;DHT22;56075;51.264;7.150;2022-10-01T21:16:30;11.50;99.90
20833;DHT22;56075;51.264;7.150;2022-10-01T21:25:18;11.60;99.90
20833;DHT22;56075;51.264;7.150;2022-10-01T21:33:51;11.50;99.90
20833;DHT22;56075;51.264;7.150;2022-10-01T21:36:30;11.30;99.90
20833;DHT22;56075;51.264;7.150;2022-10-01T21:39:15;11.30;99.90
20833;DHT22;56075;51.264;7.150;2022-10-01T21:45:14;11.50;99.90
20833;DHT22;56075;51.264;7.150;2022-10-01T21:48:23;11.40;99.90